Aeroporto :
LOGIN :

Iscrizione | Disclaimer

   EN    FR    IT 

 










Sommario :    VFR   VFR Marginale   IFR   IFR Intensivo   IFR Molto Intensivo
Visibilità : 
Base nubi : 
>= 8 km
>= 3000ft
5 / 8 km
1000 / 3000 ft
1500m / 5 km
500 / 1000 ft
800 / 1500m
200 / 500 ft
< 800m
< 200 ft
Simboli :   Temporali  Nebbia  Neve Forte  Precipitazioni Forti  Vento > 20 kt
SIGMETs :   Varie  Temporali  Ghiacco  Turbolenza  Onda orograficha  Ceneri Vulcaniche






- Altitudine del aeroporto : 203 ft
- Codice IATA : XMJ


LFBM - Mont-De-Marsan

ULTIMO METAR :
  • 220030Z AUTO VRB02KT CAVOK 08/08 Q1021 TEMPO 0300 FG VV///

METARs OBSOLETI :
  • 220000Z AUTO VRB02KT CAVOK 09/08 Q1021 BECMG 4000 BR
  • 212330Z AUTO 00000KT 9000 2700 NSC 10/09 Q1021 BECMG 4000 BR
  • 212300Z AUTO 07002KT CAVOK 10/09 Q1020 BECMG 4000 BR
  • 212230Z AUTO 07004KT CAVOK 10/09 Q1020 BECMG 4000 BR
  • 212200Z AUTO 06002KT CAVOK 11/10 Q1021 BECMG 4000 BR

TAF TAF LFBM
Valido dal 21 a 21 ore il 22 a 21 ore UTC


212000Z 2121/2221 VRB02KT CAVOK
BECMG 2123/2201 4000 BR
PROB40
TEMPO 2202/2206 0300 FG VV///
TEMPO 2206/2209 BKN004
BECMG 2209/2211 9999 NSW SCT040
BECMG 2213/2215 4000 -RA BKN010 BKN040
BECMG 2218/2220 7000 NSW BKN006



MetMap, La meteo Aeronautica in un colpo d'occhio ! - Copyright ORBIFLY Dicembre 2007 - Disclaimer

ORBIFLY MET'MAP TEAM :

Programmazione e sviluppo : Alexandra Zaïnal
Concezione e sviluppo : Baudouin d'Aumeries
Co-Programmazione e sviluppo : Marc-Olivier Méhu
Supporto tecnico e logistico : Manuel Goepfert
Aiuto per la traduzione : Arnaldo La Scala

Contatto : metmap@orbifly.com




FONTI E CREDITI :

   NOAA